الصفحة الرئيسية
METAR-TAF:

METAR-TAF

مطار :

مطار تلمسان الدولي - مصالي الحاج

تلمسان, الجزائر

دائرة عرض: 35-01N, خط طول: 001-28W, ارتفاع: 247 متر

مراقبة الطقس الحالي

تاريخ ووقت الإصدار 19 دقيقة قبل الساعة 13:00UTC
ريح 12 عقدة من الغرب
درجة الحرارة 22°درجة مئوية
الرطوبة 25%
ضغط 1023 hPa
الرؤية 10 كم أو أكثر
الغيوم لا تقل 1500 م ولا وجود لمزنة ركامية السحاب الأسود

METAR: DAON 251300Z 28012KT CAVOK 22/01 Q1023

زمن: 14:19 (13:19 UTC)

توقعات

تاريخ ووقت الإصدار 2ساعات و 19 دقيقة قبل الساعة 11:00UTC
التوقعات صالحة من25 الساعة 12 UTC إلى 26 الساعة 12 UTC
ريح 12 عقدة من الغرب
الرؤية 10 كم أو أكثر
الغيوم لا تقل 1500 م ولا وجود لمزنة ركامية السحاب الأسود
مؤقت
من 25 الساعة 12 UTC إلى 25 الساعة 18 UTC
ريح 16 عقدة من الغرب
أصبح
من 25 الساعة 22 UTC إلى 26 الساعة 02 UTC
ريح 10 عقدة من الجنوب/الجنوب الغربي
أصبح
من 26 الساعة 10 UTC إلى 26 الساعة 12 UTC
ريح 12 عقدة من الغرب/الشمال الغربي
الرؤية 10 كم أو أكثر
غيوم متفرقة على ارتفاع 2600 قدم

TAF: DAON 251100Z 2512/2612 26012KT CAVOK TEMPO 2512/2518 28016KT BECMG 2522/2602 20010KT BECMG 2610/2612 29012KT 9999 SCT026

أرصاد الطقس والتوقعات من أكثر من 4000 مطار (تقارير الطقس للمطار METAR والتنبؤ بالطقس بالمطارTAF).

المحطات المتاحة هي النقط الصفراء والحمراء على الخريطة.

حرك المؤشر فوق النقطة لمعرفة اسم المحطة.

ثم انقر لمعرفة أرصاد وتوقعات الطقس.

لتغيير الخارطة: اضغط على الأزرار الخضراء مع رمز الصليب الأسود للتكبير. على الزر الأخضر مع شرطة للتصغير، أو على الأسهم الخضراء للخرائط المجاورة.


METAR-TAF: